sensor_id;sensor_type;location;lat;lon;timestamp;P1;durP1;ratioP1;P2;durP2;ratioP2
45734;SDS011;31446;49.632;8.328;2022-12-18T00:10:36;95.68;;;30.20;;
45734;SDS011;31446;49.632;8.328;2022-12-18T00:25:42;105.20;;;30.98;;
45734;SDS011;31446;49.632;8.328;2022-12-18T00:40:49;72.65;;;24.17;;
45734;SDS011;31446;49.632;8.328;2022-12-18T00:55:55;68.75;;;20.70;;
45734;SDS011;31446;49.632;8.328;2022-12-18T01:11:06;64.72;;;19.73;;
45734;SDS011;31446;49.632;8.328;2022-12-18T01:26:14;73.72;;;21.95;;
45734;SDS011;31446;49.632;8.328;2022-12-18T01:41:22;79.60;;;22.73;;
45734;SDS011;31446;49.632;8.328;2022-12-18T01:56:50;92.65;;;26.17;;
45734;SDS011;31446;49.632;8.328;2022-12-18T02:11:58;86.93;;;25.13;;
45734;SDS011;31446;49.632;8.328;2022-12-18T02:27:11;93.72;;;26.23;;
45734;SDS011;31446;49.632;8.328;2022-12-18T02:42:18;104.45;;;28.40;;
45734;SDS011;31446;49.632;8.328;2022-12-18T02:57:34;89.72;;;28.67;;
45734;SDS011;31446;49.632;8.328;2022-12-18T03:12:46;79.10;;;22.15;;
45734;SDS011;31446;49.632;8.328;2022-12-18T03:27:57;99.63;;;28.48;;
45734;SDS011;31446;49.632;8.328;2022-12-18T03:43:07;84.10;;;25.67;;
45734;SDS011;31446;49.632;8.328;2022-12-18T03:58:17;87.03;;;26.93;;
45734;SDS011;31446;49.632;8.328;2022-12-18T04:13:31;85.65;;;27.63;;
45734;SDS011;31446;49.632;8.328;2022-12-18T04:28:39;84.80;;;25.98;;
45734;SDS011;31446;49.632;8.328;2022-12-18T04:43:46;86.47;;;25.98;;
45734;SDS011;31446;49.632;8.328;2022-12-18T04:58:52;97.15;;;27.77;;
45734;SDS011;31446;49.632;8.328;2022-12-18T05:13:59;86.15;;;25.88;;
45734;SDS011;31446;49.632;8.328;2022-12-18T05:29:05;83.00;;;24.58;;
45734;SDS011;31446;49.632;8.328;2022-12-18T05:44:14;76.85;;;25.45;;
45734;SDS011;31446;49.632;8.328;2022-12-18T05:59:21;90.85;;;26.30;;
45734;SDS011;31446;49.632;8.328;2022-12-18T06:14:28;88.78;;;26.17;;
45734;SDS011;31446;49.632;8.328;2022-12-18T06:29:34;94.15;;;30.85;;
45734;SDS011;31446;49.632;8.328;2022-12-18T06:44:40;85.10;;;25.77;;
45734;SDS011;31446;49.632;8.328;2022-12-18T06:59:47;85.45;;;26.20;;
45734;SDS011;31446;49.632;8.328;2022-12-18T07:14:53;82.95;;;24.52;;
45734;SDS011;31446;49.632;8.328;2022-12-18T07:29:59;82.85;;;25.45;;
45734;SDS011;31446;49.632;8.328;2022-12-18T07:45:06;73.40;;;22.42;;
45734;SDS011;31446;49.632;8.328;2022-12-18T08:00:14;80.95;;;26.98;;
45734;SDS011;31446;49.632;8.328;2022-12-18T08:15:21;66.25;;;20.70;;
45734;SDS011;31446;49.632;8.328;2022-12-18T08:30:27;75.72;;;22.73;;
45734;SDS011;31446;49.632;8.328;2022-12-18T08:45:33;69.60;;;24.75;;
45734;SDS011;31446;49.632;8.328;2022-12-18T09:00:39;66.05;;;24.30;;
45734;SDS011;31446;49.632;8.328;2022-12-18T09:15:49;70.18;;;25.55;;
45734;SDS011;31446;49.632;8.328;2022-12-18T09:30:57;62.75;;;26.13;;
45734;SDS011;31446;49.632;8.328;2022-12-18T09:46:04;62.58;;;25.70;;
45734;SDS011;31446;49.632;8.328;2022-12-18T10:01:14;66.70;;;26.10;;
45734;SDS011;31446;49.632;8.328;2022-12-18T10:16:25;80.25;;;29.98;;
45734;SDS011;31446;49.632;8.328;2022-12-18T10:31:39;76.07;;;29.15;;
45734;SDS011;31446;49.632;8.328;2022-12-18T10:46:46;75.20;;;29.55;;
45734;SDS011;31446;49.632;8.328;2022-12-18T11:01:55;63.25;;;25.65;;
45734;SDS011;31446;49.632;8.328;2022-12-18T11:17:04;66.75;;;27.63;;
45734;SDS011;31446;49.632;8.328;2022-12-18T11:47:44;77.22;;;33.42;;
45734;SDS011;31446;49.632;8.328;2022-12-18T12:18:36;72.25;;;30.33;;
45734;SDS011;31446;49.632;8.328;2022-12-18T12:33:54;69.88;;;28.30;;
45734;SDS011;31446;49.632;8.328;2022-12-18T12:49:08;80.05;;;30.13;;
45734;SDS011;31446;49.632;8.328;2022-12-18T13:04:20;73.32;;;28.58;;
45734;SDS011;31446;49.632;8.328;2022-12-18T13:19:32;81.47;;;32.15;;
45734;SDS011;31446;49.632;8.328;2022-12-18T13:34:38;77.63;;;30.45;;
45734;SDS011;31446;49.632;8.328;2022-12-18T13:49:45;79.30;;;31.05;;
45734;SDS011;31446;49.632;8.328;2022-12-18T14:04:52;79.03;;;30.83;;
45734;SDS011;31446;49.632;8.328;2022-12-18T14:19:59;81.47;;;31.83;;
45734;SDS011;31446;49.632;8.328;2022-12-18T14:35:12;89.63;;;34.13;;
45734;SDS011;31446;49.632;8.328;2022-12-18T14:50:18;84.93;;;34.30;;
45734;SDS011;31446;49.632;8.328;2022-12-18T15:05:27;86.15;;;36.90;;
45734;SDS011;31446;49.632;8.328;2022-12-18T15:20:40;112.60;;;40.97;;
45734;SDS011;31446;49.632;8.328;2022-12-18T15:35:48;126.90;;;45.95;;
45734;SDS011;31446;49.632;8.328;2022-12-18T15:51:01;91.93;;;36.03;;
45734;SDS011;31446;49.632;8.328;2022-12-18T16:06:08;86.65;;;32.47;;
45734;SDS011;31446;49.632;8.328;2022-12-18T16:21:15;86.68;;;35.92;;
45734;SDS011;31446;49.632;8.328;2022-12-18T16:36:21;101.53;;;39.72;;
45734;SDS011;31446;49.632;8.328;2022-12-18T16:51:28;99.07;;;39.72;;
45734;SDS011;31446;49.632;8.328;2022-12-18T17:06:38;107.63;;;41.88;;
45734;SDS011;31446;49.632;8.328;2022-12-18T17:21:46;103.43;;;41.28;;
45734;SDS011;31446;49.632;8.328;2022-12-18T17:36:54;109.35;;;46.13;;
45734;SDS011;31446;49.632;8.328;2022-12-18T17:52:00;94.95;;;39.63;;
45734;SDS011;31446;49.632;8.328;2022-12-18T18:07:06;102.97;;;39.03;;
45734;SDS011;31446;49.632;8.328;2022-12-18T18:22:12;116.18;;;43.08;;
45734;SDS011;31446;49.632;8.328;2022-12-18T18:37:19;141.45;;;49.90;;
45734;SDS011;31446;49.632;8.328;2022-12-18T18:52:25;98.57;;;37.85;;
45734;SDS011;31446;49.632;8.328;2022-12-18T19:07:31;92.90;;;36.05;;
45734;SDS011;31446;49.632;8.328;2022-12-18T19:22:37;97.82;;;39.00;;
45734;SDS011;31446;49.632;8.328;2022-12-18T19:37:43;107.35;;;44.60;;
45734;SDS011;31446;49.632;8.328;2022-12-18T19:52:49;119.47;;;46.25;;
45734;SDS011;31446;49.632;8.328;2022-12-18T20:07:56;156.43;;;64.18;;
45734;SDS011;31446;49.632;8.328;2022-12-18T20:23:02;105.97;;;41.70;;
45734;SDS011;31446;49.632;8.328;2022-12-18T20:38:08;107.80;;;42.42;;
45734;SDS011;31446;49.632;8.328;2022-12-18T20:53:15;115.80;;;46.47;;
45734;SDS011;31446;49.632;8.328;2022-12-18T21:08:24;113.90;;;43.55;;
45734;SDS011;31446;49.632;8.328;2022-12-18T21:23:30;85.13;;;34.80;;
45734;SDS011;31446;49.632;8.328;2022-12-18T21:38:37;100.15;;;42.15;;
45734;SDS011;31446;49.632;8.328;2022-12-18T21:53:43;100.40;;;39.63;;
45734;SDS011;31446;49.632;8.328;2022-12-18T22:08:49;88.25;;;35.58;;
45734;SDS011;31446;49.632;8.328;2022-12-18T22:23:57;93.35;;;36.15;;
45734;SDS011;31446;49.632;8.328;2022-12-18T22:39:05;98.28;;;38.60;;
45734;SDS011;31446;49.632;8.328;2022-12-18T22:54:12;86.20;;;31.58;;
45734;SDS011;31446;49.632;8.328;2022-12-18T23:09:19;85.05;;;33.60;;
45734;SDS011;31446;49.632;8.328;2022-12-18T23:24:26;96.93;;;37.80;;
45734;SDS011;31446;49.632;8.328;2022-12-18T23:39:33;85.25;;;35.00;;
45734;SDS011;31446;49.632;8.328;2022-12-18T23:54:39;78.60;;;33.22;;
